Apache Junction, AZ (85117)

6:13 PM MST on October 25, 2014 (GMT -0700)
Peralta Trails | Change Station
CLOSE
Current Station
Personal Weather Station
Location: Gold Canyon, AZ
Elevation: 1835 ft
Nearby Weather Stations

Elev 1835 ft 33.34 °N, 111.43 °W | Updated 3 minutes ago

Clear
Clear
87.5 °F
Feels Like 85 °F
N
0.0
Wind Variable Wind from North
Gusts 0.0 mph

Today
High -- | Low -- °F
--% Chance of Precip.
Yesterday
High -- | Low -- °F
Precip. -- in
6:37 AM 5:40 PM
Waxing Crescent, 5% visible
Pressure 29.93 in
Visibility 20.0 miles
Clouds Few 20000 ft
Heat Index 85 °F
Dew Point 53 °F
Humidity 31%
Rainfall 0.00 in
Snow Depth Not available.
UV 0 out of 12
Pollen 5.40 out of 12
Ozone Good
Flu Activity No Activity
METAR KIWA 260047Z 32004KT 20SM FEW200 32/11 A2993

More Conditions Fewer Conditions

Pressure 29.93 in
Visibility 20.0 miles
Clouds Few 20000 ft
Heat Index 85 °F
Dew Point 53 °F
Humidity 31%
Rainfall 0.00 in
Snow Depth Not available.
UV 0 out of 12
Pollen 5.40 out of 12
Ozone Good
Flu Activity No Activity
METAR KIWA 260047Z 32004KT 20SM FEW200 32/11 A2993

More Conditions Fewer Conditions

10-Day Weather Forecast

Almanac

Astronomy

Oct. 25, 2014 Rise Set
Actual Time 6:37 AM MST 5:40 PM MST
Civil Twilight 6:12 AM MST 6:05 PM MST
Nautical Twilight 5:43 AM MST 6:34 PM MST
Astronomical Twilight 5:14 AM MST 7:03 PM MST
Moon 8:16 AM MST (10/25) 7:10 PM MST (10/25)
Length of Visible Light 11h 53m
Length of Day
11h 02m
Tomorrow will be 1m 53s shorter.
Waxing Crescent, 5% of the Moon is Illuminated
Today
Waxing Crescent
Oct 30
First Quarter
Nov 6
Full
Nov 14
Last Quarter
Nov 22
New

Today's Extremes

State Highs State Lows

Community

WunderPhotos

Upload Photos

1,765,058 photos uploaded!

Nearby

Air Quality

  Air Quality AQ Index Pollutant
Yesterday Good
OZONE
Current Good
OZONE
Saturday Moderate
PM10
Saturday Good
OZONE
Sunday Moderate
PM10
Sunday Good
OZONE
Monday Moderate
PM10
Monday Good
OZONE
Tuesday Moderate
PM10
Tuesday Good
OZONE
Wednesday Moderate
PM10
Wednesday Good
OZONE

Snow Depth

Station Depth Elevation
Baker Butte 0 in 7300 ft
Baldy 1 in 9125 ft
Hannagan Meadows 0 in 9020 ft
Beaver Head 0 in 7990 ft
White Horse Lake 0 in 7180 ft

Earthquake Activity

City Distance Mag. Time & Date
No recent earthquake activity has been reported nearby.
Minimum magnitude displayed is 2.5.

Coastal Water Temperatures

Place Temperature
No Stations Reporting

Nearby Weather Stations